Time;durP1;ratioP1;P1;durP2;ratioP2;P2;SDS_P1;SDS_P2;PMS_P1;PMS_P2;Temp;Humidity;BMP_temperature;BMP_pressure;BME280_temperature;BME280_humidity;BME280_pressure;Samples;Min_cycle;Max_cycle;Signal;HPM_P1;HPM_P2
2022/12/03 00:01:19;;;;;;;49.73;27.87;;;4.90;99.90;;;4.70;74.07;102264.47;5113317;28;20043;-69
2022/12/03 00:03:47;;;;;;;50.27;28.80;;;4.80;99.90;;;4.94;74.52;102294.28;5113134;28;20493;-69
2022/12/03 00:06:17;;;;;;;49.17;28.77;;;4.90;99.90;;;5.03;74.45;102292.06;5113046;28;20044;-69
2022/12/03 00:08:46;;;;;;;55.05;29.00;;;4.90;99.90;;;5.08;74.26;102293.13;5113063;28;20512;-69
2022/12/03 00:11:14;;;;;;;52.03;29.27;;;5.00;99.90;;;5.01;74.27;102298.97;5095104;28;20481;-69
2022/12/03 00:13:42;;;;;;;54.90;29.70;;;5.00;99.90;;;5.07;74.60;102289.59;5113019;28;20043;-69
2022/12/03 00:16:10;;;;;;;52.63;29.37;;;5.00;99.90;;;5.01;74.71;102270.13;5113021;28;20403;-69
2022/12/03 00:18:39;;;;;;;56.73;30.87;;;5.10;99.90;;;5.10;75.01;102286.22;5112975;28;20134;-69
2022/12/03 00:21:07;;;;;;;57.10;30.80;;;5.00;99.90;;;4.96;74.87;102284.75;5113001;28;20039;-70
2022/12/03 00:23:37;;;;;;;56.93;31.73;;;5.00;99.90;;;5.06;75.27;102294.78;5112753;28;20047;-69
2022/12/03 00:26:09;;;;;;;54.53;31.00;;;5.00;99.90;;;5.19;75.14;102286.56;5113153;28;20051;-69
2022/12/03 00:28:38;;;;;;;54.23;30.73;;;5.10;99.90;;;5.17;74.81;102283.00;5113157;28;20047;-69
2022/12/03 00:31:06;;;;;;;54.07;31.17;;;5.10;99.90;;;5.19;74.77;102278.72;5113186;28;20042;-71
2022/12/03 00:33:34;;;;;;;54.23;30.83;;;5.10;99.90;;;5.20;74.17;102276.19;5113121;28;20119;-71
2022/12/03 00:36:02;;;;;;;54.73;30.13;;;5.10;99.90;;;5.22;74.03;102278.84;5116277;28;20050;-72
2022/12/03 00:38:31;;;;;;;55.33;30.27;;;5.20;99.90;;;5.14;74.27;102277.66;5116763;28;20038;-72
2022/12/03 00:41:00;;;;;;;54.80;32.00;;;5.10;99.90;;;5.19;74.25;102265.59;5116438;28;20044;-71
2022/12/03 00:43:29;;;;;;;51.47;29.77;;;5.20;99.90;;;5.15;74.23;102275.06;5116657;28;20035;-71
2022/12/03 00:45:57;;;;;;;50.07;28.70;;;5.20;99.90;;;5.15;74.22;102276.81;5098318;28;20374;-72
2022/12/03 00:48:26;;;;;;;54.40;30.33;;;5.20;99.90;;;5.16;74.36;102265.50;5116533;28;20040;-72
2022/12/03 00:50:54;;;;;;;50.67;28.77;;;5.10;99.90;;;5.12;74.45;102268.81;5116269;28;20485;-72
2022/12/03 00:53:22;;;;;;;51.73;29.87;;;5.10;99.90;;;5.23;74.55;102270.13;5116474;28;20035;-72
2022/12/03 00:55:50;;;;;;;52.67;29.97;;;5.20;99.90;;;5.06;74.48;102269.47;5116160;28;20484;-72
2022/12/03 00:58:20;;;;;;;52.63;30.40;;;5.10;99.90;;;5.14;74.33;102265.44;5116688;28;20069;-72
2022/12/03 01:00:48;;;;;;;56.23;29.50;;;5.10;99.90;;;5.01;74.42;102259.63;5116070;28;20071;-72
2022/12/03 01:03:16;;;;;;;49.33;28.70;;;5.10;99.90;;;5.02;74.82;102269.28;5116015;28;20066;-72
2022/12/03 01:05:45;;;;;;;52.60;29.30;;;5.00;99.90;;;5.07;74.79;102259.88;5116184;28;20071;-72
2022/12/03 01:08:13;;;;;;;53.67;29.38;;;5.00;99.90;;;5.04;74.67;102263.28;5115814;28;20501;-72
2022/12/03 01:10:41;;;;;;;48.17;28.53;;;5.00;99.90;;;5.12;74.58;102250.47;5115935;28;20047;-72
2022/12/03 01:13:10;;;;;;;51.70;29.17;;;5.10;99.90;;;5.01;74.75;102255.31;5115634;28;20068;-72
2022/12/03 01:15:39;;;;;;;51.43;28.40;;;5.00;99.90;;;4.95;74.88;102256.78;5115761;28;20573;-72
2022/12/03 01:18:08;;;;;;;48.03;28.10;;;5.00;99.90;;;4.96;74.95;102243.72;5115770;28;20067;-72
2022/12/03 01:20:37;;;;;;;49.57;28.13;;;4.90;99.90;;;5.05;74.89;102246.69;5115651;28;20297;-72
2022/12/03 01:23:06;;;;;;;51.93;28.30;;;5.00;99.90;;;4.99;74.78;102245.56;5115661;28;20485;-71
2022/12/03 01:25:34;;;;;;;56.67;31.13;;;5.00;99.90;;;4.98;74.95;102249.00;5115870;28;20404;-71
2022/12/03 01:28:02;;;;;;;52.80;29.43;;;4.90;99.90;;;4.74;75.14;102217.50;5115728;28;20114;-72
2022/12/03 01:32:15;;;;;;;48.83;28.53;;;4.90;99.90;;;4.97;75.70;102242.91;5115485;28;20146;-72
2022/12/03 01:33:19;;;;;;;53.67;29.77;;;4.90;99.90;;;5.02;75.18;102243.97;5115486;28;20046;-72
2022/12/03 01:35:47;;;;;;;52.60;30.57;;;5.00;99.90;;;4.99;75.63;102241.22;5115382;28;20477;-72
2022/12/03 01:38:16;;;;;;;52.57;29.77;;;4.90;99.90;;;5.06;75.40;102243.25;5115383;28;20112;-72
2022/12/03 01:40:44;;;;;;;53.77;31.23;;;5.00;99.90;;;5.04;75.60;102254.50;5115517;28;20035;-72
2022/12/03 01:43:13;;;;;;;52.67;29.10;;;5.00;99.90;;;5.11;75.32;102246.06;5115291;28;20485;-72
2022/12/03 01:45:41;;;;;;;54.90;31.87;;;5.00;99.90;;;5.08;75.77;102249.47;5114801;28;20081;-72
2022/12/03 01:48:12;;;;;;;52.23;30.87;;;5.10;99.90;;;4.98;75.58;102238.53;5114524;28;20043;-72
2022/12/03 01:50:42;;;;;;;53.60;31.03;;;5.00;99.90;;;5.05;75.39;102251.94;5115169;28;20044;-72
2022/12/03 01:53:17;;;;;;;50.47;29.45;;;5.00;99.90;;;5.02;75.62;102237.81;5115184;28;20048;-72
2022/12/03 01:55:45;;;;;;;50.03;28.97;;;5.00;99.90;;;5.12;75.27;102233.00;5115056;28;20035;-72
2022/12/03 01:58:17;;;;;;;51.33;29.10;;;5.10;99.90;;;5.01;75.34;102236.94;5115542;28;20538;-71
2022/12/03 02:00:45;;;;;;;53.20;29.27;;;5.10;99.90;;;5.10;75.34;102234.69;5115092;28;20108;-72
2022/12/03 02:03:21;;;;;;;51.30;29.17;;;5.10;99.90;;;5.12;74.99;102224.25;5096886;28;20051;-72
2022/12/03 02:05:50;;;;;;;51.17;28.67;;;5.10;99.90;;;5.21;74.88;102235.09;5114882;28;20043;-74
2022/12/03 02:08:29;;;;;;;48.05;27.70;;;5.20;99.90;;;5.13;75.13;102236.53;5114681;28;20369;-71
2022/12/03 02:10:59;;;;;;;50.67;29.03;;;5.10;99.90;;;5.08;75.03;102219.72;5114968;28;20074;-72
2022/12/03 02:13:27;;;;;;;53.80;29.88;;;5.10;99.90;;;5.03;75.18;102221.28;5114668;28;20051;-72
2022/12/03 02:15:56;;;;;;;56.33;31.27;;;5.00;99.90;;;5.02;75.72;102233.47;5114898;28;20032;-72
2022/12/03 02:18:25;;;;;;;53.23;29.77;;;5.00;99.90;;;5.09;75.73;102230.25;5114795;28;20053;-72
2022/12/03 02:21:05;;;;;;;53.57;29.60;;;5.00;99.90;;;4.89;75.60;102222.44;5114508;28;20043;-72
2022/12/03 02:23:39;;;;;;;55.88;30.20;;;5.00;99.90;;;5.02;75.87;102229.94;5114674;28;20397;-72
2022/12/03 02:26:09;;;;;;;57.17;30.87;;;5.00;99.90;;;4.96;75.86;102227.97;5114777;28;20042;-72
2022/12/03 02:28:38;;;;;;;55.13;30.95;;;5.00;99.90;;;5.01;75.74;102229.09;5114625;28;20039;-72
2022/12/03 02:31:06;;;;;;;55.73;30.13;;;5.00;99.90;;;5.10;76.27;102233.78;5096373;28;20560;-72
2022/12/03 02:33:35;;;;;;;52.97;30.50;;;5.00;99.90;;;5.13;75.98;102237.41;5114806;28;20039;-73
2022/12/03 02:36:04;;;;;;;55.13;30.03;;;5.10;99.90;;;5.12;75.83;102227.75;5114439;28;20426;-72
2022/12/03 02:38:34;;;;;;;55.43;29.80;;;5.10;99.90;;;5.01;75.91;102233.41;5114700;28;20047;-72
2022/12/03 02:41:07;;;;;;;54.95;29.90;;;5.00;99.90;;;5.00;76.12;102232.53;5114140;28;20559;-72
2022/12/03 02:43:37;;;;;;;58.77;30.30;;;5.00;99.90;;;4.97;76.10;102229.78;5114168;28;20040;-72
2022/12/03 02:46:07;;;;;;;56.80;31.00;;;5.00;99.90;;;5.02;76.46;102227.31;5096056;28;20077;-72
2022/12/03 02:48:38;;;;;;;54.03;30.10;;;5.00;99.90;;;5.06;76.53;102224.00;5114353;28;20040;-72
2022/12/03 02:51:10;;;;;;;56.90;30.17;;;5.00;99.90;;;5.08;76.63;102225.84;5114303;28;20057;-72
2022/12/03 02:53:43;;;;;;;58.77;31.53;;;5.10;99.90;;;5.04;76.43;102226.56;5114242;28;20043;-72
2022/12/03 02:56:15;;;;;;;54.80;29.90;;;5.10;99.90;;;4.86;76.62;102215.34;5113899;28;20489;-72
2022/12/03 02:58:47;;;;;;;54.33;31.20;;;5.00;99.90;;;5.01;76.84;102212.44;5113657;28;20051;-72
2022/12/03 03:01:16;;;;;;;54.30;29.23;;;5.00;99.90;;;5.08;76.44;102222.31;5114363;28;20114;-72
2022/12/03 03:03:46;;;;;;;60.10;30.00;;;5.10;99.90;;;4.83;76.35;102170.66;5113751;28;20131;-72
2022/12/03 03:06:15;;;;;;;56.78;31.83;;;5.10;99.90;;;4.91;76.88;102212.91;5114017;28;20131;-72
2022/12/03 03:08:44;;;;;;;53.23;28.90;;;5.00;99.90;;;4.95;77.14;102210.47;5113937;28;20089;-71
2022/12/03 03:11:13;;;;;;;51.97;29.67;;;5.00;99.90;;;5.03;76.83;102206.41;5113705;28;20501;-72
2022/12/03 03:13:44;;;;;;;58.03;30.03;;;5.00;99.90;;;5.06;76.89;102201.31;5114194;28;20040;-72
2022/12/03 03:16:12;;;;;;;54.03;29.90;;;5.00;99.90;;;5.09;77.20;102211.03;5113716;28;20058;-72
2022/12/03 03:18:40;;;;;;;54.10;29.50;;;5.10;99.90;;;5.03;77.13;102209.03;5113841;28;20123;-72
2022/12/03 03:21:09;;;;;;;55.63;30.47;;;5.00;99.90;;;5.08;77.00;102202.25;5113574;28;20047;-72
2022/12/03 03:23:37;;;;;;;58.17;29.67;;;5.00;99.90;;;5.08;77.18;102207.50;5113739;28;20047;-72
2022/12/03 03:26:08;;;;;;;54.37;30.03;;;5.00;99.90;;;4.98;77.48;102201.81;5113777;28;20396;-72
2022/12/03 03:28:39;;;;;;;58.40;30.60;;;5.00;99.90;;;5.11;77.34;102209.34;5113729;28;20040;-71
2022/12/03 03:31:12;;;;;;;56.77;30.10;;;5.00;99.90;;;4.92;77.11;102204.19;5113566;28;20126;-71
2022/12/03 03:33:42;;;;;;;55.17;30.67;;;5.00;99.90;;;4.98;77.38;102188.72;5113895;28;20039;-71
2022/12/03 03:36:11;;;;;;;54.85;30.52;;;4.90;99.90;;;5.02;77.42;102194.16;5114285;28;20036;-71
2022/12/03 03:38:41;;;;;;;;;;;5.00;99.90;;;5.12;77.12;102198.03;5114141;28;20083;-71
2022/12/03 03:41:11;;;;;;;55.60;30.53;;;5.10;99.90;;;5.15;77.15;102196.41;5113915;28;19919;-72
2022/12/03 03:43:44;;;;;;;53.97;29.93;;;5.10;99.90;;;5.13;77.32;102191.97;5113872;28;20439;-71
2022/12/03 03:46:14;;;;;;;55.67;30.67;;;5.10;99.90;;;5.17;77.20;102191.22;5113378;28;20075;-71
2022/12/03 03:48:43;;;;;;;53.77;29.87;;;5.10;99.90;;;5.21;77.11;102195.75;5113555;28;20413;-72
2022/12/03 03:51:13;;;;;;;53.43;30.30;;;5.20;99.90;;;5.28;76.78;102203.03;5113299;28;20068;-72
2022/12/03 03:53:44;;;;;;;54.63;31.33;;;5.20;99.90;;;5.14;77.15;102194.63;5113557;28;20048;-72
2022/12/03 03:56:13;;;;;;;55.87;29.97;;;5.20;99.90;;;5.14;77.17;102193.72;5113334;28;20057;-72
2022/12/03 03:58:41;;;;;;;52.20;31.00;;;5.10;99.90;;;5.20;77.15;102188.72;5113222;28;20047;-72
2022/12/03 04:01:11;;;;;;;54.73;31.43;;;5.20;99.90;;;5.18;77.45;102193.91;5113240;28;20401;-72
2022/12/03 04:03:41;;;;;;;51.63;29.50;;;5.10;99.90;;;5.14;77.33;102191.09;5113479;28;20048;-70
2022/12/03 04:06:10;;;;;;;48.72;29.08;;;5.10;99.90;;;5.22;77.37;102192.31;5113159;28;20039;-69
2022/12/03 04:08:39;;;;;;;51.57;29.17;;;5.20;99.90;;;5.22;77.93;102184.44;5113053;28;20040;-70
2022/12/03 04:13:52;;;;;;;54.17;30.07;;;5.20;99.90;;;5.17;77.58;102178.09;5117013;28;20578;-69
2022/12/03 04:16:21;;;;;;;53.77;30.13;;;5.20;99.90;;;5.31;77.51;102176.91;5117212;28;20031;-72
2022/12/03 04:18:50;;;;;;;51.20;29.40;;;5.20;99.90;;;5.33;77.20;102172.59;5117444;28;20048;-72
2022/12/03 04:24:13;;;;;;;52.37;29.30;;;5.30;99.90;;;5.37;77.28;102174.50;5077180;28;20259;-72
2022/12/03 04:29:32;;;;;;;53.20;30.67;;;5.30;99.90;;;5.03;77.72;102151.34;5077373;28;20409;-72
2022/12/03 04:37:35;;;;;;;53.27;30.80;;;5.30;99.90;;;5.08;77.67;102162.91;5116557;28;20054;-72
2022/12/03 04:40:59;;;;;;;55.40;30.87;;;5.10;99.90;;;5.10;78.05;102152.47;5117040;28;20048;-71
2022/12/03 04:42:53;;;;;;;54.13;29.52;;;5.10;99.90;;;5.07;78.39;102149.75;5116324;28;20063;-73
2022/12/03 04:45:21;;;;;;;54.57;31.97;;;5.10;99.90;;;5.22;78.50;102150.34;5116683;28;20039;-72
2022/12/03 04:47:50;;;;;;;57.97;31.50;;;5.10;99.90;;;4.95;78.36;102129.22;5116577;28;20047;-72
2022/12/03 04:50:19;;;;;;;57.40;30.77;;;5.00;99.90;;;5.13;78.77;102143.00;5116501;28;20043;-72
2022/12/03 04:52:48;;;;;;;53.53;30.93;;;5.10;99.90;;;5.20;78.29;102149.38;5116818;28;20043;-72
2022/12/03 04:55:16;;;;;;;55.87;30.10;;;5.10;99.90;;;5.24;78.69;102144.31;5116130;28;20048;-72
2022/12/03 04:57:44;;;;;;;56.07;30.63;;;5.20;99.90;;;5.19;78.67;102147.56;5116096;28;20052;-71
2022/12/03 05:00:14;;;;;;;53.63;28.67;;;5.20;99.90;;;4.89;79.20;102143.78;5116398;28;20046;-72
2022/12/03 05:02:43;;;;;;;56.00;30.02;;;5.00;99.90;;;4.73;79.89;102138.78;5116166;28;20050;-71
2022/12/03 05:05:11;;;;;;;54.10;30.57;;;4.80;99.90;;;4.81;79.73;102150.47;5115969;28;20473;-71
2022/12/03 05:07:41;;;;;;;55.90;32.17;;;4.80;99.90;;;4.85;79.99;102149.75;5115962;28;20134;-72
2022/12/03 05:10:11;;;;;;;53.75;30.65;;;4.80;99.90;;;4.64;80.48;102141.94;5115908;28;20048;-72
2022/12/03 05:12:39;;;;;;;60.90;32.92;;;4.70;99.90;;;4.71;81.10;102148.31;5116704;28;20047;-72
2022/12/03 05:15:09;;;;;;;55.53;31.43;;;4.70;99.90;;;4.75;81.16;102147.59;5116025;28;20043;-72
2022/12/03 05:17:37;;;;;;;59.40;31.23;;;4.70;99.90;;;4.79;80.88;102150.41;5116268;28;20047;-72
2022/12/03 05:22:54;;;;;;;60.27;31.57;;;4.80;99.90;;;4.26;82.21;102129.00;5115677;28;20051;-71
2022/12/03 05:25:22;;;;;;;58.93;31.73;;;4.40;99.90;;;4.60;82.13;102140.03;5115945;28;20443;-72
2022/12/03 05:27:51;;;;;;;57.07;31.23;;;4.50;99.90;;;4.78;81.29;102139.88;5115908;28;20082;-72
2022/12/03 05:30:19;;;;;;;60.43;32.37;;;4.70;99.90;;;4.88;81.36;102136.78;5115461;28;20036;-72
2022/12/03 05:32:47;;;;;;;57.43;31.83;;;4.80;99.90;;;4.86;81.35;102133.22;5116023;28;20130;-72
2022/12/03 05:35:16;;;;;;;62.27;32.73;;;4.80;99.90;;;4.78;81.21;102129.41;5115711;28;20043;-72
2022/12/03 05:37:44;;;;;;;60.97;31.83;;;4.80;99.90;;;4.81;80.78;102138.25;5115597;28;20052;-72
2022/12/03 05:40:15;;;;;;;64.90;32.77;;;4.80;99.90;;;4.52;81.71;102096.91;5115353;28;20092;-72
2022/12/03 05:45:30;;;;;;;60.57;32.80;;;4.80;99.90;;;5.12;81.27;102137.72;5115836;28;20068;-72
2022/12/03 05:48:00;;;;;;;55.00;31.50;;;5.00;99.90;;;5.12;80.90;102145.56;5097238;28;20564;-72
2022/12/03 05:50:32;;;;;;;56.30;31.40;;;5.10;99.90;;;5.01;81.09;102129.44;5115334;28;20043;-72
2022/12/03 05:53:16;;;;;;;53.10;29.73;;;4.90;99.90;;;4.93;80.62;102119.50;5115302;28;20058;-72
2022/12/03 05:55:45;;;;;;;56.55;30.85;;;4.90;99.90;;;4.47;81.09;102109.81;5115391;28;20046;-73
2022/12/03 05:58:14;;;;;;;58.40;31.25;;;4.60;99.90;;;4.57;80.63;102122.47;5115273;28;20035;-72
2022/12/03 06:00:42;;;;;;;60.17;30.53;;;4.60;99.90;;;4.76;80.17;102097.00;5114884;28;20039;-72
2022/12/03 06:03:10;;;;;;;57.63;32.30;;;4.70;99.90;;;4.74;79.69;102110.03;5115033;28;20511;-72
2022/12/03 06:05:39;;;;;;;56.50;30.37;;;4.70;99.90;;;4.77;79.18;102093.53;5115357;28;20054;-72
2022/12/03 06:08:07;;;;;;;55.87;31.43;;;4.80;99.90;;;4.70;79.52;102102.88;5114739;28;20447;-72
2022/12/03 06:10:36;;;;;;;59.23;32.27;;;4.70;99.90;;;4.82;78.85;102105.09;5115025;28;20059;-72
2022/12/03 06:13:06;;;;;;;58.37;32.57;;;4.80;99.90;;;4.81;79.08;102095.44;5115226;28;20426;-71
2022/12/03 06:15:34;;;;;;;58.40;31.10;;;4.80;99.90;;;4.58;78.94;102105.94;5115220;28;20035;-71
2022/12/03 06:18:10;;;;;;;56.47;31.27;;;4.70;99.90;;;4.70;79.53;102121.25;5096631;28;20286;-71
2022/12/03 06:20:38;;;;;;;62.10;30.90;;;4.60;99.90;;;4.49;79.83;102102.91;5114545;28;20050;-71
2022/12/03 06:23:07;;;;;;;57.23;31.23;;;4.50;99.90;;;4.46;79.46;102101.91;5114671;28;20059;-72
2022/12/03 06:25:35;;;;;;;58.27;31.47;;;4.50;99.90;;;4.51;80.01;102098.63;5114466;28;20040;-71
2022/12/03 06:28:06;;;;;;;58.23;32.50;;;4.50;99.90;;;4.52;80.07;102095.19;5114699;28;20406;-72
2022/12/03 06:30:34;;;;;;;58.13;30.63;;;4.50;99.90;;;4.44;80.10;102107.09;5114335;28;20040;-71
2022/12/03 06:33:03;;;;;;;56.27;31.17;;;4.50;99.90;;;4.56;80.57;102094.50;5113760;28;20081;-72
2022/12/03 06:35:31;;;;;;;53.80;30.77;;;4.50;99.90;;;4.62;79.82;102085.97;5114242;28;20460;-71
2022/12/03 06:38:00;;;;;;;55.67;32.23;;;4.60;99.90;;;4.66;80.61;102098.38;5114218;28;20042;-72
2022/12/03 06:40:28;;;;;;;59.90;32.63;;;4.60;99.90;;;4.78;79.81;102097.94;5114178;28;20465;-72
2022/12/03 06:42:56;;;;;;;60.23;32.47;;;4.70;99.90;;;4.90;79.76;102088.81;5114621;28;20046;-73
2022/12/03 06:45:26;;;;;;;55.57;31.27;;;4.80;99.90;;;4.44;80.15;102086.16;5114107;28;20043;-72
2022/12/03 06:47:54;;;;;;;60.53;31.37;;;4.60;99.90;;;4.32;80.82;102085.66;5114594;28;20054;-72
2022/12/03 06:50:22;;;;;;;60.37;32.07;;;4.40;99.90;;;4.54;80.32;102088.28;5114191;28;20036;-73
2022/12/03 06:52:50;;;;;;;58.10;32.17;;;4.50;99.90;;;4.05;80.83;102087.16;5114488;28;20082;-72
2022/12/03 06:55:19;;;;;;;57.80;32.07;;;4.10;99.90;;;4.17;81.42;102081.50;5113909;28;20069;-72
2022/12/03 06:57:47;;;;;;;65.40;35.07;;;4.10;99.90;;;4.26;81.14;102093.25;5113850;28;20446;-72
2022/12/03 07:00:16;;;;;;;59.37;31.30;;;4.20;99.90;;;4.14;81.02;102076.16;5114079;28;20105;-72
2022/12/03 07:02:45;;;;;;;60.67;34.07;;;4.20;99.90;;;4.39;80.73;102098.16;5113784;28;20043;-72
2022/12/03 07:05:14;;;;;;;56.88;30.95;;;4.30;99.90;;;4.53;79.98;102089.13;5114084;28;20118;-72
2022/12/03 07:07:42;;;;;;;59.60;32.80;;;4.50;99.90;;;4.75;79.55;102092.56;5114303;28;20061;-72
2022/12/03 07:10:13;;;;;;;57.73;32.90;;;4.60;99.90;;;4.75;78.79;102111.81;5113685;28;20039;-71
2022/12/03 07:12:42;;;;;;;54.63;29.73;;;4.70;99.90;;;4.75;78.67;102103.06;5113766;28;20446;-71
2022/12/03 07:15:10;;;;;;;57.00;31.93;;;4.70;99.90;;;4.64;78.73;102105.28;5113657;28;20070;-72
2022/12/03 07:17:39;;;;;;;55.90;31.87;;;4.60;99.90;;;4.88;78.66;102098.34;5113562;28;20044;-71
2022/12/03 07:20:10;;;;;;;58.87;31.90;;;4.80;99.90;;;4.75;78.72;102100.44;5113553;28;20054;-71
2022/12/03 07:22:38;;;;;;;60.97;33.30;;;4.80;99.90;;;4.87;78.94;102104.44;5113680;28;20147;-72
2022/12/03 07:25:08;;;;;;;61.27;34.50;;;4.80;99.90;;;4.95;78.90;102107.34;5113407;28;20523;-71
2022/12/03 07:27:36;;;;;;;60.50;33.50;;;4.90;99.90;;;5.06;79.19;102104.28;5113417;28;20052;-72
2022/12/03 07:30:06;;;;;;;58.43;32.73;;;5.00;99.90;;;5.07;79.00;102108.69;5113381;28;20047;-75
2022/12/03 07:32:35;;;;;;;58.70;33.40;;;5.00;99.90;;;5.10;78.62;102100.94;5114073;28;20086;-72
2022/12/03 07:35:06;;;;;;;59.53;33.57;;;5.10;99.90;;;4.91;79.33;102100.19;5095486;28;20423;-72
2022/12/03 07:37:35;;;;;;;61.60;33.97;;;4.90;99.90;;;5.00;79.28;102100.53;5113484;28;20118;-68
2022/12/03 07:40:05;;;;;;;58.38;33.15;;;5.00;99.90;;;5.05;78.82;102096.38;5113324;28;20484;-69
2022/12/03 07:42:34;;;;;;;61.80;34.85;;;5.10;99.90;;;4.63;80.27;102097.34;5113636;28;20045;-68
2022/12/03 07:45:02;;;;;;;62.10;35.00;;;4.70;99.90;;;4.56;80.51;102090.97;5114847;28;20050;-68
2022/12/03 07:47:30;;;;;;;64.93;34.80;;;4.60;99.90;;;4.64;80.68;102097.41;5099357;28;20484;-70
2022/12/03 07:49:59;;;;;;;66.40;35.07;;;4.60;99.90;;;4.57;81.23;102092.75;5117292;28;20043;-69
2022/12/03 07:52:27;;;;;;;63.40;35.00;;;4.50;99.90;;;4.47;82.00;102116.81;5117355;28;20047;-71
2022/12/03 07:54:57;;;;;;;61.17;34.53;;;4.40;99.90;;;4.14;82.68;102097.13;5117539;28;20378;-70
2022/12/03 07:57:25;;;;;;;63.07;34.73;;;4.20;99.90;;;4.49;82.72;102104.66;5117611;28;20142;-70
2022/12/03 07:59:53;;;;;;;62.23;35.43;;;4.30;99.90;;;4.50;82.47;102104.72;5117274;28;20338;-69
2022/12/03 08:02:21;;;;;;;66.47;36.17;;;4.40;99.90;;;4.37;81.65;102105.06;5117109;28;20039;-68
2022/12/03 08:04:50;;;;;;;70.40;35.93;;;4.40;99.90;;;4.36;82.59;102099.75;5116968;28;20040;-69
2022/12/03 08:07:18;;;;;;;73.63;38.10;;;4.30;99.90;;;4.18;83.12;102097.28;5116689;28;20126;-70
2022/12/03 08:09:46;;;;;;;64.13;35.20;;;4.20;99.90;;;4.29;83.59;102106.50;5116835;28;20041;-69
2022/12/03 08:12:38;;;;;;;64.53;35.27;;;4.20;99.90;;;4.23;83.28;102100.09;5116630;28;20043;-71
2022/12/03 08:15:13;;;;;;;73.43;38.00;;;4.20;99.90;;;4.17;84.39;102097.22;5116796;28;20047;-70
2022/12/03 08:17:43;;;;;;;70.13;36.90;;;4.00;99.90;;;4.16;83.36;102088.47;5117167;28;20073;-73
2022/12/03 08:20:15;;;;;;;70.20;37.13;;;4.10;99.90;;;4.46;82.79;102089.72;5115780;28;20489;-72
2022/12/03 08:22:46;;;;;;;66.80;36.73;;;4.30;99.90;;;4.67;82.00;102104.47;5116789;28;20131;-73
2022/12/03 08:25:21;;;;;;;72.27;35.17;;;4.60;99.90;;;4.10;81.78;102085.63;5116833;28;20048;-70
2022/12/03 08:27:54;;;;;;;73.40;38.17;;;4.30;99.90;;;4.29;82.27;102087.25;5117308;28;20039;-71
2022/12/03 08:30:23;;;;;;;65.53;37.50;;;4.30;99.90;;;4.55;81.44;102076.97;5116659;28;20115;-71
2022/12/03 08:32:52;;;;;;;63.73;35.63;;;4.40;99.90;;;4.74;80.45;102088.19;5116588;28;20067;-70
2022/12/03 08:35:25;;;;;;;65.20;36.87;;;4.60;99.90;;;4.52;80.33;102095.19;5116590;28;20050;-70
2022/12/03 08:38:01;;;;;;;63.27;35.30;;;4.60;99.90;;;4.42;80.28;102082.56;5117159;28;20062;-71
2022/12/03 08:40:36;;;;;;;64.90;37.47;;;4.40;99.90;;;4.54;80.82;102082.16;5116440;28;20127;-72
2022/12/03 08:43:14;;;;;;;71.77;38.80;;;4.50;99.90;;;4.69;79.94;102077.50;5116661;28;20116;-73
2022/12/03 08:45:43;;;;;;;66.17;37.90;;;4.60;99.90;;;4.84;79.90;102090.31;5116446;28;20457;-71
2022/12/03 08:48:33;;;;;;;66.37;37.10;;;4.80;99.90;;;4.58;80.08;102090.22;5116323;28;20044;-69
2022/12/03 08:51:09;;;;;;;66.43;36.20;;;4.60;99.90;;;4.67;79.95;102073.03;5116071;28;20127;-70
2022/12/03 08:53:44;;;;;;;66.50;37.87;;;4.60;99.90;;;4.70;79.41;102102.88;5116221;28;20497;-70
2022/12/03 08:56:22;;;;;;;69.20;37.27;;;4.70;99.90;;;4.52;79.97;102078.59;5116058;28;20054;-70
2022/12/03 08:58:56;;;;;;;64.40;36.87;;;4.50;99.90;;;4.28;80.07;102070.63;5116364;28;20497;-73
2022/12/03 09:01:39;;;;;;;69.20;37.13;;;4.40;99.90;;;4.07;81.06;102068.88;5116615;28;20054;-70
2022/12/03 09:04:27;;;;;;;69.23;38.03;;;4.10;99.90;;;4.18;80.84;102065.84;5116091;28;20439;-70
2022/12/03 09:06:57;;;;;;;67.97;38.23;;;4.20;99.90;;;4.08;80.68;102071.59;5116339;28;20050;-71
2022/12/03 09:09:26;;;;;;;67.67;38.40;;;4.10;99.90;;;4.40;79.98;102079.00;5115907;28;20043;-72
2022/12/03 09:11:55;;;;;;;67.57;37.80;;;4.30;99.90;;;4.23;80.42;102074.81;5116024;28;20442;-70
2022/12/03 09:14:24;;;;;;;64.60;35.30;;;4.20;99.90;;;4.30;79.51;102070.69;5116119;28;20036;-70
2022/12/03 09:16:54;;;;;;;62.60;34.65;;;4.30;99.90;;;4.37;79.13;102070.13;5115745;28;20512;-69
2022/12/03 09:19:24;;;;;;;60.03;34.20;;;4.30;99.90;;;4.42;78.95;102084.28;5116057;28;20101;-69
2022/12/03 09:21:52;;;;;;;64.27;36.10;;;4.30;99.90;;;4.13;78.70;102062.19;5116234;28;20540;-70
2022/12/03 09:24:21;;;;;;;59.63;34.60;;;4.20;99.90;;;4.15;79.52;102072.69;5116066;28;20457;-69
2022/12/03 09:26:50;;;;;;;63.63;36.90;;;4.20;99.90;;;4.25;79.59;102049.59;5115623;28;20055;-69
2022/12/03 09:29:18;;;;;;;66.07;39.33;;;4.30;99.90;;;4.15;80.36;102075.31;5115469;28;20105;-69
2022/12/03 09:31:48;;;;;;;68.80;38.83;;;4.20;99.90;;;4.15;81.19;102071.00;5115476;28;20463;-69
2022/12/03 09:34:16;;;;;;;62.13;36.33;;;4.10;99.90;;;4.04;82.09;102079.22;5115816;28;20040;-69
2022/12/03 09:36:44;;;;;;;62.80;37.27;;;4.00;99.90;;;4.04;82.99;102074.91;5115584;28;20039;-69
2022/12/03 09:39:13;;;;;;;64.20;36.53;;;3.90;99.90;;;3.84;82.38;102080.13;5115345;28;20044;-69
2022/12/03 09:41:42;;;;;;;68.73;36.57;;;3.80;99.90;;;3.98;82.98;102087.72;5115470;28;20078;-70
2022/12/03 09:44:12;;;;;;;65.43;36.40;;;3.90;99.90;;;4.11;82.66;102081.25;5115177;28;20718;-69
2022/12/03 09:46:48;;;;;;;62.33;35.13;;;4.00;99.90;;;3.79;83.01;102076.44;5115225;28;20074;-70
2022/12/03 09:49:18;;;;;;;65.50;35.90;;;3.80;99.90;;;3.68;83.11;102078.56;5115514;28;20044;-69
2022/12/03 09:51:47;;;;;;;65.95;35.50;;;3.70;99.90;;;3.58;83.49;102072.06;5115109;28;20044;-69
2022/12/03 09:54:23;;;;;;;66.70;36.97;;;3.60;99.90;;;3.65;84.21;102068.91;5115018;28;20041;-69
2022/12/03 09:56:53;;;;;;;68.30;38.07;;;3.60;99.90;;;3.88;83.72;102075.09;5115128;28;20457;-69
2022/12/03 09:59:23;;;;;;;74.97;36.08;;;3.80;99.90;;;3.87;82.93;102073.28;5115255;28;20032;-70
2022/12/03 10:01:54;;;;;;;66.63;37.03;;;3.80;99.90;;;3.74;83.23;102050.06;5114842;28;20138;-70
2022/12/03 10:04:22;;;;;;;65.10;36.63;;;3.80;99.90;;;3.65;84.33;102066.28;5114871;28;20043;-70
2022/12/03 10:06:51;;;;;;;64.30;36.07;;;3.60;99.90;;;3.86;84.27;102068.00;5114490;28;20384;-70
2022/12/03 10:09:29;;;;;;;62.37;36.20;;;3.80;99.90;;;3.84;84.66;102067.03;5114817;28;20043;-70
2022/12/03 10:11:59;;;;;;;70.27;36.33;;;3.80;99.90;;;3.60;83.63;102038.16;5114643;28;20502;-70
2022/12/03 10:14:28;;;;;;;71.43;38.67;;;3.80;99.90;;;3.90;84.19;102068.19;5114612;28;20492;-70
2022/12/03 10:16:58;;;;;;;71.70;37.57;;;3.80;99.90;;;3.74;83.90;102072.69;5114835;28;20078;-70
2022/12/03 10:19:31;;;;;;;69.00;37.92;;;3.70;99.90;;;3.49;84.53;102070.78;5114903;28;20382;-70
2022/12/03 10:21:59;;;;;;;71.67;37.73;;;3.60;99.90;;;3.81;85.03;102070.44;5114551;28;20515;-70
2022/12/03 10:24:30;;;;;;;72.27;38.67;;;3.70;99.90;;;3.57;84.37;102069.38;5114824;28;20238;-70
2022/12/03 10:27:00;;;;;;;74.50;37.88;;;3.60;99.90;;;3.35;85.08;102064.94;5096597;28;20555;-70
2022/12/03 10:29:30;;;;;;;74.85;38.30;;;3.40;99.90;;;3.19;85.70;102038.97;5114433;28;20747;-70
2022/12/03 10:32:05;;;;;;;76.70;40.17;;;3.30;99.90;;;3.36;86.15;102058.91;5114279;28;20071;-69
2022/12/03 10:34:36;;;;;;;82.93;40.10;;;3.30;99.90;;;3.15;86.21;102060.59;5114449;28;20130;-69
2022/12/03 10:37:15;;;;;;;80.03;40.83;;;3.20;99.90;;;3.10;87.13;102051.63;5114462;28;20065;-68
2022/12/03 10:39:58;;;;;;;81.57;39.70;;;3.10;99.90;;;3.13;87.34;102035.19;5114412;28;20048;-69
2022/12/03 10:42:29;;;;;;;88.03;41.03;;;3.20;99.90;;;2.96;87.46;102015.28;5114204;28;20456;-69
2022/12/03 10:45:09;;;;;;;;;;;3.20;99.90;;;3.00;87.69;102053.78;5114610;28;20044;-69